Domov               UVHVVR             MKGP            O straneh              
ZDRAVSTVENO VARSTVO RASTLIN
  MREŽA AGROMET. POSTAJ
 ► PROGNOSTIČNA OBVESTILA
AGROMETEOROLOŠKI PODATKI -
ARSO
OBVLADOVANJE TVEGANJ ZARADI
NEUGODNIH VREMENSKIH RAZMER
  ► NARAVNE NESREČE
  ► SUŠA/MOČA
  ► NAMAKANJE
  ► ŽLED (gozdarstvo)
KARTOGRAFSKI PRIKAZI
SPLETNE POVEZAVE
PROJEKTI IN PUBLIKACIJE

AGROMETEOROLOŠKA MREŽA: VREMENSKE POSTAJE IN FENOLOŠKA OPAZOVANJA

Pregled podatkov za lokacijo KIS 2, meteorološka postaja 27260

Pregled senzorjev na lokaciji

ID Ime Zadnja
vrednost
Datum
zadnje
spremembe
Tip
senzorja
1396 Relativna vlaga 2 m (% RH) 94,94 % RH 25.6.2017 23:45 Generic 0 - 100 %
1397 Omočenost lista (U) 6,33 U 25.6.2017 23:45 A730WET
1398 Padavine 0.2 mm (mm) 0 mm 25.6.2017 23:45 Generic
3177 Temperatura 2 m ( °C) 18,57 °C 25.6.2017 23:45 Generic -40 - +60 °C

Pregled podatkov zadnjih 24 ur

Zap.
št.
Datum in čas KIS 2
Omočenost
lista
Padavine
0.2
mm
Relativna
vlaga
2
m
Temperatura
2
m
0 25.6.2017 23:00 6,33 0 94,94 18,57
1 25.6.2017 22:30 4 0 94,85 18,61
2 25.6.2017 22:00 4 0 95,17 18,4
3 25.6.2017 21:30 3,73 0 95,58 18,73
4 25.6.2017 21:00 3 0 95,67 18,87
5 25.6.2017 20:30 2,73 0 96,49 18,91
6 25.6.2017 20:00 1,97 0 95,68 19,17
7 25.6.2017 19:30 4,07 0 95,64 19,2
8 25.6.2017 19:00 9 0,2 96,31 19
9 25.6.2017 18:30 8,4 0,2 96,62 18,77
10 25.6.2017 18:00 6,53 0,6 96,56 18,75
11 25.6.2017 17:30 9,47 13,6 94,92 19,16
12 25.6.2017 17:00 10 0,4 87,37 20,6
13 25.6.2017 16:30 10 2 81,87 21,6
14 25.6.2017 16:00 2,67 0 72,16 22,75
15 25.6.2017 15:30 0 0 66,92 23,41
16 25.6.2017 15:00 0 0 66,93 23,42
17 25.6.2017 14:30 0 0 63,82 24,11
18 25.6.2017 14:00 0 0 65,51 23,44
19 25.6.2017 13:30 0 0 66,94 22,54
20 25.6.2017 13:00 0 0 76,49 21,07
21 25.6.2017 12:30 0 0 83,34 20,09
22 25.6.2017 12:00 8,07 0 84,96 19,7
23 25.6.2017 11:30 8 1 72,89 22,89
24 25.6.2017 11:00 0 0 64,76 26,35
25 25.6.2017 10:30 0 0 62,7 26,91
26 25.6.2017 10:00 0 0 61,19 27,08
27 25.6.2017 09:30 0 0 64,4 26,8
28 25.6.2017 09:00 0 0 68,9 25,31
29 25.6.2017 08:30 0 0 72,19 25,19
30 25.6.2017 08:00 0 0 82,5 23,12
31 25.6.2017 07:30 0,33 0 85,34 22,41
32 25.6.2017 07:00 0 0 80,86 22,4
33 25.6.2017 06:30 0 0 82,68 22,53
34 25.6.2017 06:00 0 0 80,63 22,69
35 25.6.2017 05:30 2,33 0 84,53 22,05
36 25.6.2017 05:00 10 0 89,02 21,55
37 25.6.2017 04:30 10 0 90,36 21,43
38 25.6.2017 04:00 10 0 88,3 21,91
39 25.6.2017 03:30 9,67 0 83,15 22,12
40 25.6.2017 03:00 10 0 87,83 22,11
41 25.6.2017 02:30 0 0 74,79 22,47
42 25.6.2017 02:00 0 0 72,15 23
43 25.6.2017 01:30 0 0 73,84 23,16
44 25.6.2017 01:00 1 0 78,15 23,54
45 25.6.2017 00:30 1,07 0 78,04 23,84
© 2011 Ministrstvo za kmetijstvo, gozdarstvo in prehrano. Vse pravice pridržane.